Time;durP1;ratioP1;P1;durP2;ratioP2;P2;SDS_P1;SDS_P2;PMS_P1;PMS_P2;Temp;Humidity;BMP_temperature;BMP_pressure;BME280_temperature;BME280_humidity;BME280_pressure;Samples;Min_cycle;Max_cycle;Signal;HPM_P1;HPM_P2
2022/08/07 00:01:26;;;;;;;1999.90;999.90;;;11.80;99.90;;;;;;5059749;28;20465;-73
2022/08/07 00:03:53;;;;;;;1999.90;999.90;;;11.80;99.90;;;;;;5051982;28;20527;-71
2022/08/07 00:06:20;;;;;;;1999.90;999.90;;;12.00;99.90;;;;;;5059906;28;21023;-70
2022/08/07 00:08:46;;;;;;;1999.90;999.90;;;12.20;99.90;;;;;;5067131;28;20477;-70
2022/08/07 00:11:13;;;;;;;1999.90;999.90;;;12.40;99.90;;;;;;5065088;28;20450;-70
2022/08/07 00:13:41;;;;;;;1999.90;999.90;;;12.60;99.90;;;;;;5067028;28;20508;-71
2022/08/07 00:16:08;;;;;;;1999.90;999.90;;;12.70;99.90;;;;;;5061235;28;20494;-70
2022/08/07 00:18:36;;;;;;;1999.90;999.90;;;12.90;99.90;;;;;;5065955;28;20487;-68
2022/08/07 00:21:04;;;;;;;1999.90;999.90;;;13.00;99.90;;;;;;5060428;28;20461;-70
2022/08/07 00:23:32;;;;;;;1999.90;999.90;;;13.00;99.90;;;;;;5049221;28;20519;-71
2022/08/07 00:26:00;;;;;;;1999.90;999.90;;;12.90;99.90;;;;;;5058876;28;20550;-69
2022/08/07 00:28:27;;;;;;;1999.90;999.90;;;12.90;99.90;;;;;;5065914;28;20493;-70
2022/08/07 00:30:54;;;;;;;1999.90;999.90;;;12.70;99.90;;;;;;5065025;28;20469;-70
2022/08/07 00:33:25;;;;;;;1999.90;999.90;;;12.70;99.90;;;;;;5064518;28;20478;-70
2022/08/07 00:35:53;;;;;;;1999.90;999.90;;;12.30;99.90;;;;;;5059327;28;20484;-71
2022/08/07 00:38:19;;;;;;;1999.90;999.90;;;11.90;99.90;;;;;;5060970;28;20466;-73
2022/08/07 00:40:46;;;;;;;1999.90;999.90;;;11.70;99.90;;;;;;5066933;28;20835;-72
2022/08/07 00:43:14;;;;;;;1999.90;999.90;;;11.70;99.90;;;;;;5062523;28;20508;-72
2022/08/07 00:45:42;;;;;;;1999.90;999.90;;;11.60;99.90;;;;;;5065819;28;20542;-73
2022/08/07 00:48:10;;;;;;;1999.90;999.90;;;11.50;99.90;;;;;;5057469;28;20548;-73
2022/08/07 00:50:37;;;;;;;1999.90;999.90;;;11.30;99.90;;;;;;5063403;28;20465;-73
2022/08/07 00:53:05;;;;;;;1999.90;999.90;;;11.30;99.90;;;;;;5061679;28;20457;-73
2022/08/07 00:55:32;;;;;;;1999.90;999.90;;;11.40;99.90;;;;;;5066914;28;21044;-73
2022/08/07 00:57:59;;;;;;;1999.90;999.90;;;11.50;99.90;;;;;;5065831;28;20515;-72
2022/08/07 01:00:26;;;;;;;1999.90;999.90;;;11.50;99.90;;;;;;5064210;28;20465;-73
2022/08/07 01:02:53;;;;;;;1999.90;999.90;;;11.50;99.90;;;;;;5066053;28;20496;-70
2022/08/07 01:05:21;;;;;;;1999.90;999.90;;;11.30;99.90;;;;;;5065276;28;20512;-73
2022/08/07 01:07:48;;;;;;;1999.90;999.90;;;11.30;99.90;;;;;;5065679;28;20703;-73
2022/08/07 01:10:17;;;;;;;1999.90;999.90;;;11.30;99.90;;;;;;5058126;28;20491;-72
2022/08/07 01:12:44;;;;;;;1999.90;999.90;;;11.40;99.90;;;;;;5057755;28;20529;-74
2022/08/07 01:15:11;;;;;;;1999.90;999.90;;;11.40;99.90;;;;;;5059539;28;20495;-72
2022/08/07 01:17:38;;;;;;;1999.90;999.90;;;11.50;99.90;;;;;;5063372;28;20462;-72
2022/08/07 01:20:07;;;;;;;1999.90;999.90;;;11.50;99.90;;;;;;5061658;28;20461;-73
2022/08/07 01:22:36;;;;;;;1999.90;999.90;;;11.50;99.90;;;;;;5063661;28;20468;-72
2022/08/07 01:25:05;;;;;;;1999.90;999.90;;;11.40;99.90;;;;;;5059100;28;21267;-73
2022/08/07 01:27:32;;;;;;;1999.90;999.90;;;11.20;99.90;;;;;;5051291;28;20466;-73
2022/08/07 01:29:59;;;;;;;1999.90;999.90;;;11.20;99.90;;;;;;5059857;28;20480;-73
2022/08/07 01:32:25;;;;;;;1999.90;999.90;;;11.10;99.90;;;;;;5063823;28;20470;-73
2022/08/07 01:34:53;;;;;;;1999.90;999.90;;;11.10;99.90;;;;;;5062225;28;20481;-72
2022/08/07 01:37:20;;;;;;;1999.90;999.90;;;11.20;99.90;;;;;;5046998;28;20467;-73
2022/08/07 01:39:48;;;;;;;1999.90;999.90;;;11.10;99.90;;;;;;5061765;28;20470;-72
2022/08/07 01:42:16;;;;;;;1999.90;999.90;;;11.10;99.90;;;;;;5061200;28;20523;-72
2022/08/07 01:44:43;;;;;;;1999.90;999.90;;;11.00;99.90;;;;;;5063252;28;20485;-73
2022/08/07 01:47:10;;;;;;;1999.90;999.90;;;11.00;99.90;;;;;;5062273;28;20465;-72
2022/08/07 01:49:37;;;;;;;1999.90;999.90;;;11.10;99.90;;;;;;5061559;28;20481;-73
2022/08/07 01:52:05;;;;;;;1999.90;999.90;;;11.20;99.90;;;;;;5066220;28;20514;-72
2022/08/07 01:54:36;;;;;;;1999.90;999.90;;;11.20;99.90;;;;;;5067617;28;20461;-72
2022/08/07 01:57:06;;;;;;;1999.90;999.90;;;11.10;99.90;;;;;;5065388;28;20461;-72
2022/08/07 01:59:39;;;;;;;1999.90;999.90;;;11.00;99.90;;;;;;5062210;28;20453;-72
2022/08/07 02:02:11;;;;;;;1999.90;999.90;;;11.00;99.90;;;;;;5061044;28;21027;-74
2022/08/07 02:04:42;;;;;;;1999.90;999.90;;;10.90;99.90;;;;;;5062868;28;20457;-73
2022/08/07 02:07:11;;;;;;;1999.90;999.90;;;11.00;99.90;;;;;;5065130;28;20453;-72
2022/08/07 02:09:41;;;;;;;1999.90;999.90;;;10.90;99.90;;;;;;5057174;28;20489;-73
2022/08/07 02:12:17;;;;;;;1999.90;999.90;;;10.90;99.90;;;;;;5060487;28;20462;-73
2022/08/07 02:14:46;;;;;;;1999.90;999.90;;;10.90;99.90;;;;;;5057467;28;20480;-73
2022/08/07 02:17:15;;;;;;;1999.90;999.90;;;10.80;99.90;;;;;;5063036;28;20547;-73
2022/08/07 02:19:44;;;;;;;1999.90;999.90;;;10.80;99.90;;;;;;5067113;28;20503;-74
2022/08/07 02:22:13;;;;;;;1999.90;999.90;;;10.80;99.90;;;;;;5065489;28;20507;-73
2022/08/07 02:24:42;;;;;;;1999.90;999.90;;;10.80;99.90;;;;;;5064710;28;20457;-74
2022/08/07 02:27:10;;;;;;;1999.90;999.90;;;10.70;99.90;;;;;;5060825;28;20829;-73
2022/08/07 02:29:38;;;;;;;1999.90;999.90;;;10.80;99.90;;;;;;5055927;28;20539;-73
2022/08/07 02:32:07;;;;;;;1999.90;999.90;;;10.80;99.90;;;;;;5054708;28;20493;-74
2022/08/07 02:34:34;;;;;;;1999.90;999.90;;;10.90;99.90;;;;;;5065719;28;20479;-73
2022/08/07 02:37:04;;;;;;;1999.90;999.90;;;11.00;99.90;;;;;;5064251;28;20469;-71
2022/08/07 02:39:32;;;;;;;1999.90;999.90;;;11.10;99.90;;;;;;5067800;28;20457;-71
2022/08/07 02:42:00;;;;;;;1999.90;999.90;;;11.20;99.90;;;;;;5066970;28;20885;-70
2022/08/07 02:44:30;;;;;;;1999.90;999.90;;;11.00;99.90;;;;;;5066272;28;20470;-71
2022/08/07 02:46:57;;;;;;;1999.90;999.90;;;11.00;99.90;;;;;;5066863;28;21130;-70
2022/08/07 02:49:24;;;;;;;1999.90;999.90;;;11.10;99.90;;;;;;5059344;28;20490;-71
2022/08/07 02:51:55;;;;;;;1999.90;999.90;;;11.20;99.90;;;;;;5052709;28;20463;-72
2022/08/07 02:54:25;;;;;;;1999.90;999.90;;;11.40;99.90;;;;;;5063786;28;20589;-70
2022/08/07 02:56:54;;;;;;;1999.90;999.90;;;11.40;99.90;;;;;;5067567;28;20973;-71
2022/08/07 02:59:26;;;;;;;1999.90;999.90;;;11.40;99.90;;;;;;5063841;28;20454;-71
2022/08/07 03:01:55;;;;;;;1999.90;999.90;;;11.50;99.90;;;;;;5060200;28;20511;-70
2022/08/07 03:04:23;;;;;;;1999.90;999.90;;;11.50;99.90;;;;;;5065735;28;20512;-69
2022/08/07 03:06:52;;;;;;;1999.90;999.90;;;11.40;99.90;;;;;;5068272;28;20454;-70
2022/08/07 03:09:20;;;;;;;1999.90;999.90;;;11.40;99.90;;;;;;5063384;28;20639;-70
2022/08/07 03:11:48;;;;;;;1999.90;999.90;;;11.50;99.90;;;;;;5066780;28;20549;-70
2022/08/07 03:14:15;;;;;;;1999.90;999.90;;;11.50;99.90;;;;;;5057028;28;20511;-70
2022/08/07 03:16:42;;;;;;;1999.90;999.90;;;11.60;99.90;;;;;;5066264;28;20519;-69
2022/08/07 03:19:10;;;;;;;1999.90;999.90;;;11.60;99.90;;;;;;5064137;28;20453;-71
2022/08/07 03:21:37;;;;;;;1999.90;999.90;;;11.60;99.90;;;;;;5066080;28;21000;-71
2022/08/07 03:24:04;;;;;;;1999.90;999.90;;;11.60;99.90;;;;;;5065037;28;20461;-71
2022/08/07 03:26:32;;;;;;;1999.90;999.90;;;11.60;99.90;;;;;;5060072;28;20478;-69
2022/08/07 03:29:01;;;;;;;1999.90;999.90;;;11.60;99.90;;;;;;5053833;28;20465;-69
2022/08/07 03:31:29;;;;;;;1999.90;999.90;;;11.70;99.90;;;;;;5063794;28;20462;-71
2022/08/07 03:33:59;;;;;;;1999.90;999.90;;;11.60;99.90;;;;;;5068484;28;20453;-69
2022/08/07 03:36:28;;;;;;;1999.90;999.90;;;11.60;99.90;;;;;;5065494;28;20482;-71
2022/08/07 03:39:08;;;;;;;1999.90;999.90;;;11.50;99.90;;;;;;5064820;28;20457;-72
2022/08/07 03:41:36;;;;;;;1999.90;999.90;;;11.40;99.90;;;;;;5063122;28;20509;-69
2022/08/07 03:44:03;;;;;;;1999.90;999.90;;;11.40;99.90;;;;;;5064914;28;21021;-68
2022/08/07 03:46:31;;;;;;;1999.90;999.90;;;11.20;99.90;;;;;;5066534;28;20478;-69
2022/08/07 03:48:58;;;;;;;1999.90;999.90;;;11.20;99.90;;;;;;5060618;28;20461;-70
2022/08/07 03:51:26;;;;;;;1999.90;999.90;;;11.30;99.90;;;;;;5066375;28;20470;-71
2022/08/07 03:53:54;;;;;;;1999.90;999.90;;;11.20;99.90;;;;;;5061356;28;20457;-71
2022/08/07 03:56:24;;;;;;;1999.90;999.90;;;11.10;99.90;;;;;;5066706;28;20482;-73
2022/08/07 03:58:51;;;;;;;1999.90;999.90;;;11.10;99.90;;;;;;5070856;28;20803;-69
2022/08/07 04:01:19;;;;;;;1999.90;999.90;;;11.10;99.90;;;;;;5062246;28;20517;-70
2022/08/07 04:03:46;;;;;;;1999.90;999.90;;;11.10;99.90;;;;;;5067256;28;20457;-70
2022/08/07 04:06:12;;;;;;;1999.90;999.90;;;11.20;99.90;;;;;;5066436;28;20865;-72
2022/08/07 04:08:40;;;;;;;1999.90;999.90;;;11.30;99.90;;;;;;5066123;28;20507;-71
2022/08/07 04:11:09;;;;;;;1999.90;999.90;;;11.30;99.90;;;;;;5063450;28;21185;-71
2022/08/07 04:13:36;;;;;;;1999.90;999.90;;;11.40;99.90;;;;;;5060490;28;20463;-71
2022/08/07 04:16:03;;;;;;;1999.90;999.90;;;11.60;99.90;;;;;;5054855;28;20489;-70
2022/08/07 04:18:30;;;;;;;1999.90;999.90;;;11.70;99.90;;;;;;5059994;28;20458;-69
2022/08/07 04:20:57;;;;;;;1999.90;999.90;;;11.70;99.90;;;;;;5065092;28;20453;-71
2022/08/07 04:23:25;;;;;;;1999.90;999.90;;;11.80;99.90;;;;;;5061699;28;20462;-71
2022/08/07 04:25:53;;;;;;;1999.90;999.90;;;11.80;99.90;;;;;;5060603;28;20532;-72
2022/08/07 04:28:21;;;;;;;1999.90;999.90;;;11.70;99.90;;;;;;5054869;28;20501;-71
2022/08/07 04:30:48;;;;;;;1999.90;999.90;;;11.70;99.90;;;;;;5063311;28;20511;-71
2022/08/07 04:33:16;;;;;;;1999.90;999.90;;;11.80;99.90;;;;;;5059768;28;20469;-69
2022/08/07 04:35:44;;;;;;;1999.90;999.90;;;11.70;99.90;;;;;;5055307;28;20560;-71
2022/08/07 04:38:11;;;;;;;1999.90;999.90;;;11.70;99.90;;;;;;5062195;28;20461;-71
2022/08/07 04:40:40;;;;;;;1999.90;999.90;;;11.80;99.90;;;;;;5063836;28;20511;-71
2022/08/07 04:43:07;;;;;;;1999.90;999.90;;;11.90;99.90;;;;;;5056581;28;20469;-68
2022/08/07 04:45:41;;;;;;;1999.90;999.90;;;12.10;99.90;;;;;;5062806;28;20910;-72
2022/08/07 04:48:16;;;;;;;1999.90;999.90;;;12.20;99.90;;;;;;5061371;28;20487;-71
2022/08/07 04:50:56;;;;;;;1999.90;999.90;;;12.50;99.90;;;;;;5056669;28;20539;-71
2022/08/07 04:53:31;;;;;;;1999.90;999.90;;;13.10;99.90;;;;;;5055868;28;20564;-71
2022/08/07 04:56:11;;;;;;;1999.90;999.90;;;13.40;99.90;;;;;;5056732;28;20551;-71
2022/08/07 04:58:45;;;;;;;1999.90;999.90;;;13.60;99.90;;;;;;5061377;28;20512;-71
2022/08/07 05:01:20;;;;;;;1999.90;999.90;;;14.10;99.90;;;;;;5061557;28;20469;-70
2022/08/07 05:03:52;;;;;;;1999.90;999.90;;;14.20;99.90;;;;;;5052772;28;20872;-70
2022/08/07 05:06:23;;;;;;;1999.90;999.90;;;14.20;99.90;;;;;;5059245;28;21234;-70
2022/08/07 05:09:01;;;;;;;1999.90;999.90;;;14.10;99.90;;;;;;5053643;28;21000;-71
2022/08/07 05:11:31;;;;;;;1999.90;999.90;;;14.40;99.90;;;;;;5049772;28;20994;-72
2022/08/07 05:14:02;;;;;;;1999.90;999.90;;;14.30;99.90;;;;;;5063618;28;20503;-71
2022/08/07 05:16:32;;;;;;;1999.90;999.90;;;14.40;99.90;;;;;;5079500;23;20527;-70
2022/08/07 05:19:04;;;;;;;1999.90;999.90;;;14.70;99.90;;;;;;5062777;28;20454;-72
2022/08/07 05:21:34;;;;;;;1999.90;999.90;;;14.80;99.90;;;;;;5059986;28;20461;-70
2022/08/07 05:24:03;;;;;;;1999.90;999.90;;;15.00;99.90;;;;;;5058322;28;20987;-70
2022/08/07 05:26:33;;;;;;;1999.90;999.90;;;15.30;99.90;;;;;;5055238;28;20528;-71
2022/08/07 05:29:02;;;;;;;1999.90;999.90;;;15.00;99.90;;;;;;5050610;28;20458;-71
2022/08/07 05:31:33;;;;;;;1999.90;999.90;;;14.90;99.90;;;;;;5051479;28;20543;-71
2022/08/07 05:34:01;;;;;;;1999.90;999.90;;;14.90;99.90;;;;;;5051693;28;20902;-71
2022/08/07 05:36:29;;;;;;;1999.90;999.90;;;15.00;99.90;;;;;;5050551;28;20491;-71
2022/08/07 05:38:57;;;;;;;1999.90;999.90;;;15.30;99.90;;;;;;5051473;28;20462;-70
2022/08/07 05:41:24;;;;;;;1999.90;999.90;;;15.70;99.90;;;;;;5049601;28;20529;-70
2022/08/07 05:43:54;;;;;;;1999.90;999.90;;;16.20;99.90;;;;;;5054188;28;20459;-70
2022/08/07 05:46:22;;;;;;;1999.90;999.90;;;16.40;99.90;;;;;;5056099;28;20479;-70
2022/08/07 05:48:51;;;;;;;1999.90;999.90;;;16.50;99.90;;;;;;5051337;28;20829;-71
2022/08/07 05:51:18;;;;;;;1999.90;999.90;;;16.60;99.90;;;;;;5051804;28;20592;-71
2022/08/07 05:53:45;;;;;;;1999.90;999.90;;;16.70;99.90;;;;;;5057100;28;20488;-70
2022/08/07 05:56:15;;;;;;;1999.90;999.90;;;16.90;99.90;;;;;;5049563;28;21062;-70
2022/08/07 05:58:45;;;;;;;1999.90;999.90;;;17.10;99.90;;;;;;5049080;28;20457;-70
2022/08/07 06:01:13;;;;;;;1999.90;999.90;;;17.20;99.90;;;;;;5052455;28;20489;-70
2022/08/07 06:03:43;;;;;;;1999.90;999.90;;;17.50;99.90;;;;;;5055300;28;20470;-71
2022/08/07 06:06:12;;;;;;;1999.90;999.90;;;17.70;99.90;;;;;;5054194;28;20489;-71
2022/08/07 06:08:40;;;;;;;1999.90;999.90;;;18.00;99.90;;;;;;5052436;28;20455;-70
2022/08/07 06:11:07;;;;;;;1999.90;999.90;;;18.00;99.90;;;;;;5049516;28;20489;-69
2022/08/07 06:13:35;;;;;;;1999.90;999.90;;;18.00;99.90;;;;;;5050722;28;20528;-71
2022/08/07 06:16:05;;;;;;;1999.90;999.90;;;18.10;99.90;;;;;;5055145;28;20544;-71
2022/08/07 06:18:33;;;;;;;1999.90;999.90;;;18.20;99.90;;;;;;5050188;28;20454;-71
2022/08/07 06:21:01;;;;;;;1999.90;999.90;;;18.20;99.90;;;;;;5050077;28;20512;-70
2022/08/07 06:23:29;;;;;;;1999.90;999.90;;;18.10;99.90;;;;;;5050063;28;20470;-69
2022/08/07 06:25:57;;;;;;;1999.90;999.90;;;18.00;99.90;;;;;;5049248;28;20982;-71
2022/08/07 06:28:24;;;;;;;1999.90;999.90;;;18.00;99.90;;;;;;5047930;28;20493;-70
2022/08/07 06:30:51;;;;;;;1999.90;999.90;;;18.70;99.90;;;;;;5052787;28;20547;-71
2022/08/07 06:33:19;;;;;;;1999.90;999.90;;;19.10;99.90;;;;;;5042686;28;20462;-70
2022/08/07 06:35:45;;;;;;;1999.90;999.90;;;19.30;99.90;;;;;;5052019;28;20494;-70
2022/08/07 06:38:12;;;;;;;1999.90;999.90;;;19.40;99.90;;;;;;5045429;28;20954;-71
2022/08/07 06:40:45;;;;;;;1999.90;999.90;;;19.60;99.90;;;;;;5054115;28;20469;-72
2022/08/07 06:43:13;;;;;;;1999.90;999.90;;;19.50;99.90;;;;;;5050213;28;20516;-71
2022/08/07 06:45:40;;;;;;;1999.90;999.90;;;19.70;99.90;;;;;;5043406;28;20544;-70
2022/08/07 06:48:07;;;;;;;1999.90;999.90;;;19.80;99.90;;;;;;5047922;28;20520;-70
2022/08/07 06:50:38;;;;;;;1999.90;999.90;;;19.70;99.90;;;;;;5048647;28;20470;-71
2022/08/07 06:53:07;;;;;;;1999.90;999.90;;;19.70;99.90;;;;;;5051266;28;20455;-71
2022/08/07 06:55:35;;;;;;;1999.90;999.90;;;19.90;99.40;;;;;;5049246;28;20528;-72
2022/08/07 06:58:06;;;;;;;1999.90;999.90;;;20.30;99.80;;;;;;5051013;28;20454;-69
2022/08/07 07:00:36;;;;;;;1999.90;999.90;;;20.10;98.40;;;;;;5047090;28;20461;-69
2022/08/07 07:03:04;;;;;;;1999.90;999.90;;;20.50;97.80;;;;;;5057893;28;20461;-69
2022/08/07 07:05:31;;;;;;;1999.90;999.90;;;21.00;97.30;;;;;;5052850;28;20535;-70
2022/08/07 07:07:57;;;;;;;1999.90;999.90;;;20.80;96.70;;;;;;5048523;28;20954;-72
2022/08/07 07:10:28;;;;;;;1999.90;999.90;;;20.90;96.30;;;;;;5047591;28;21077;-72
2022/08/07 07:12:58;;;;;;;1999.90;999.90;;;21.10;96.60;;;;;;5045809;28;20838;-73
2022/08/07 07:15:29;;;;;;;1999.90;999.90;;;20.90;96.30;;;;;;5045196;28;20491;-72
2022/08/07 07:18:02;;;;;;;1999.90;999.90;;;21.40;95.60;;;;;;5054195;28;20512;-73
2022/08/07 07:20:34;;;;;;;1999.90;999.90;;;21.10;95.90;;;;;;5049556;28;20462;-72
2022/08/07 07:23:02;;;;;;;1999.90;999.90;;;21.10;95.90;;;;;;5048625;28;21153;-72
2022/08/07 07:25:29;;;;;;;1999.90;999.90;;;21.20;95.90;;;;;;5046505;28;20543;-71
2022/08/07 07:28:00;;;;;;;1999.90;999.90;;;21.00;95.50;;;;;;5047531;28;20867;-72
2022/08/07 07:30:32;;;;;;;1999.90;999.90;;;21.30;95.60;;;;;;5045356;28;20483;-72
2022/08/07 07:33:01;;;;;;;1999.90;999.90;;;21.50;95.10;;;;;;5050343;28;20506;-72
2022/08/07 07:35:28;;;;;;;1999.90;999.90;;;21.40;94.50;;;;;;5045492;28;20482;-72
2022/08/07 07:37:57;;;;;;;1999.90;999.90;;;21.30;94.90;;;;;;5045441;28;20462;-72
2022/08/07 07:40:24;;;;;;;1999.90;999.90;;;21.50;94.60;;;;;;5049097;28;20463;-71
2022/08/07 07:42:55;;;;;;;1999.90;999.90;;;21.70;94.10;;;;;;5057326;28;20469;-72
2022/08/07 07:45:25;;;;;;;1999.90;999.90;;;21.80;93.80;;;;;;5044346;28;20483;-70
2022/08/07 07:47:56;;;;;;;1999.90;999.90;;;21.60;94.10;;;;;;5053026;28;20842;-70
2022/08/07 07:50:24;;;;;;;1999.90;999.90;;;22.00;93.80;;;;;;5052102;28;20458;-70
2022/08/07 07:52:52;;;;;;;1999.90;999.90;;;22.40;93.70;;;;;;5056078;28;20890;-70
2022/08/07 07:55:21;;;;;;;1999.90;999.90;;;22.10;91.60;;;;;;5045988;28;20528;-70
2022/08/07 07:57:50;;;;;;;1999.90;999.90;;;22.20;92.20;;;;;;5049804;28;20461;-71
2022/08/07 08:00:19;;;;;;;1999.90;999.90;;;22.30;91.10;;;;;;5048483;28;20450;-69
2022/08/07 08:02:49;;;;;;;1999.90;999.90;;;22.10;91.20;;;;;;5049965;28;20466;-70
2022/08/07 08:05:18;;;;;;;1999.90;999.90;;;22.00;91.70;;;;;;5044011;28;20465;-69
2022/08/07 08:07:45;;;;;;;1999.90;999.90;;;22.00;91.90;;;;;;5049729;28;20458;-71
2022/08/07 08:10:14;;;;;;;1999.90;999.90;;;21.70;91.70;;;;;;5051263;28;20492;-69
2022/08/07 08:12:41;;;;;;;1999.90;999.90;;;22.00;92.00;;;;;;5046214;28;20483;-72
2022/08/07 08:15:09;;;;;;;1999.90;999.90;;;22.30;91.10;;;;;;5047680;28;20943;-71
2022/08/07 08:17:36;;;;;;;1999.90;999.90;;;22.20;90.70;;;;;;5048443;28;21051;-70
2022/08/07 08:20:06;;;;;;;1999.90;999.90;;;22.40;90.90;;;;;;5050339;28;20462;-72
2022/08/07 08:28:15;;;;;;;1999.90;999.90;;;22.60;90.70;;;;;;5048722;28;20472;-71
2022/08/07 08:30:43;;;;;;;1999.90;999.90;;;22.80;90.60;;;;;;5041878;28;20446;-73
2022/08/07 08:33:15;;;;;;;1999.90;999.90;;;22.90;90.60;;;;;;5034402;28;20505;-72
2022/08/07 08:35:44;;;;;;;1999.90;999.90;;;23.00;89.80;;;;;;5044152;28;20482;-70
2022/08/07 08:38:14;;;;;;;1999.90;999.90;;;23.20;88.90;;;;;;5043690;28;21025;-70
2022/08/07 08:40:48;;;;;;;1999.90;999.90;;;23.10;87.60;;;;;;5043469;28;20814;-70
2022/08/07 08:43:21;;;;;;;1999.90;999.90;;;23.00;88.20;;;;;;5047846;28;20458;-70
2022/08/07 08:45:53;;;;;;;1999.90;999.90;;;23.00;87.90;;;;;;5041207;28;20551;-71
2022/08/07 08:48:30;;;;;;;1999.90;999.90;;;23.20;87.30;;;;;;5042761;28;20896;-68
2022/08/07 08:51:01;;;;;;;1999.90;999.90;;;23.20;87.10;;;;;;5046099;28;20546;-70
2022/08/07 08:53:37;;;;;;;1999.90;999.90;;;23.10;87.60;;;;;;5050577;28;20951;-69
2022/08/07 08:56:09;;;;;;;1999.90;999.90;;;23.20;85.00;;;;;;5051119;28;20831;-71
2022/08/07 08:58:43;;;;;;;1999.90;999.90;;;23.20;84.90;;;;;;5047177;28;20462;-71
2022/08/07 09:01:15;;;;;;;1999.90;999.90;;;22.90;84.00;;;;;;5044607;28;20454;-71
2022/08/07 09:03:50;;;;;;;1999.90;999.90;;;23.40;83.00;;;;;;5043520;28;20462;-68
2022/08/07 09:06:26;;;;;;;1999.90;999.90;;;23.70;80.80;;;;;;5045694;28;21038;-68
2022/08/07 09:09:02;;;;;;;1999.90;999.90;;;23.50;82.50;;;;;;5048677;28;20531;-67
2022/08/07 09:11:38;;;;;;;1999.90;999.90;;;23.50;79.80;;;;;;5046465;28;20486;-72
2022/08/07 09:14:12;;;;;;;1999.90;999.90;;;22.80;82.00;;;;;;5043886;28;20500;-70
2022/08/07 09:16:49;;;;;;;1999.90;999.90;;;23.00;83.60;;;;;;5049696;28;20569;-70
2022/08/07 09:19:38;;;;;;;1999.90;999.90;;;23.10;79.90;;;;;;5041680;28;20495;-69
2022/08/07 09:22:21;;;;;;;1999.90;999.90;;;23.40;80.00;;;;;;5047110;28;20461;-68
2022/08/07 09:24:59;;;;;;;1999.90;999.90;;;23.60;79.60;;;;;;5048929;28;20462;-71
2022/08/07 09:27:33;;;;;;;1999.90;999.90;;;23.60;78.70;;;;;;5044126;28;20852;-71
2022/08/07 09:30:04;;;;;;;1999.90;999.90;;;24.00;78.10;;;;;;5051941;28;20898;-71
2022/08/07 09:33:06;;;;;;;1999.90;999.90;;;24.10;76.70;;;;;;5046886;28;20467;-70
2022/08/07 09:35:41;;;;;;;1999.90;999.90;;;24.10;77.20;;;;;;5047401;28;20477;-71
2022/08/07 09:38:16;;;;;;;1999.90;999.90;;;24.10;76.80;;;;;;5047513;28;20469;-72
2022/08/07 09:41:03;;;;;;;1999.90;999.90;;;23.90;76.40;;;;;;5046381;28;20603;-71
2022/08/07 09:43:44;;;;;;;1999.90;999.90;;;23.90;77.20;;;;;;5044078;28;20470;-70
2022/08/07 09:46:23;;;;;;;1999.90;999.90;;;23.60;77.40;;;;;;5048369;28;20478;-71
2022/08/07 09:48:59;;;;;;;1999.90;999.90;;;23.30;77.50;;;;;;5046622;28;20453;-68
2022/08/07 09:51:46;;;;;;;1999.90;999.90;;;23.10;78.60;;;;;;5045957;28;20470;-69
2022/08/07 09:54:18;;;;;;;1999.90;999.90;;;22.80;80.10;;;;;;5049488;28;20959;-69
2022/08/07 09:57:09;;;;;;;1999.90;999.90;;;23.00;79.80;;;;;;5042694;28;20488;-71
2022/08/07 10:00:04;;;;;;;1999.90;999.90;;;23.10;80.50;;;;;;5043333;28;20467;-70
2022/08/07 10:02:56;;;;;;;1999.90;999.90;;;23.30;79.20;;;;;;5043391;28;20457;-70
2022/08/07 10:05:50;;;;;;;1999.90;999.90;;;23.40;78.80;;;;;;5051665;28;20544;-72
2022/08/07 10:08:42;;;;;;;1999.90;999.90;;;23.80;76.40;;;;;;5043555;28;20465;-70
2022/08/07 10:11:22;;;;;;;1999.90;999.90;;;23.80;75.00;;;;;;5048857;28;21012;-71
2022/08/07 10:14:05;;;;;;;1999.90;999.90;;;24.00;75.80;;;;;;5055494;28;20512;-71
2022/08/07 10:16:49;;;;;;;1999.90;999.90;;;24.00;74.70;;;;;;5050252;28;20490;-71
2022/08/07 10:19:31;;;;;;;1999.90;999.90;;;23.80;75.60;;;;;;5052520;28;20600;-70
2022/08/07 10:22:38;;;;;;;1999.90;999.90;;;23.60;78.10;;;;;;5052126;28;20454;-69
2022/08/07 10:25:21;;;;;;;1999.90;999.90;;;23.70;77.50;;;;;;5045744;28;20503;-69
2022/08/07 10:28:03;;;;;;;1999.90;999.90;;;24.00;76.20;;;;;;5051124;28;20455;-72
2022/08/07 10:30:42;;;;;;;1999.90;999.90;;;24.00;75.40;;;;;;5050097;28;20540;-71
2022/08/07 10:33:38;;;;;;;1999.90;999.90;;;23.90;77.40;;;;;;5048158;28;20903;-70
2022/08/07 10:36:24;;;;;;;1999.90;999.90;;;23.70;75.50;;;;;;5012574;28;20515;-71
2022/08/07 10:38:57;;;;;;;1999.90;999.90;;;23.70;75.60;;;;;;5047845;28;20466;-69
2022/08/07 10:41:31;;;;;;;1999.90;999.90;;;23.60;74.70;;;;;;5050840;28;20553;-69
2022/08/07 10:44:07;;;;;;;1999.90;999.90;;;23.50;75.60;;;;;;5053985;28;20470;-70
2022/08/07 10:46:42;;;;;;;1999.90;999.90;;;23.40;76.00;;;;;;5047729;28;20493;-70
2022/08/07 10:49:20;;;;;;;1999.90;999.90;;;23.30;75.20;;;;;;5048475;28;20539;-69
2022/08/07 10:51:56;;;;;;;1999.90;999.90;;;23.40;75.10;;;;;;5048553;28;21058;-70
2022/08/07 10:54:34;;;;;;;1999.90;999.90;;;23.40;74.70;;;;;;5045134;28;21040;-68
2022/08/07 10:57:10;;;;;;;1999.90;999.90;;;23.20;75.80;;;;;;5046636;28;20532;-70
2022/08/07 10:59:58;;;;;;;1999.90;999.90;;;23.40;77.30;;;;;;5044592;28;20500;-71
2022/08/07 11:02:31;;;;;;;1999.90;999.90;;;23.50;77.90;;;;;;5047288;28;20465;-69
2022/08/07 11:05:09;;;;;;;1999.90;999.90;;;23.90;77.30;;;;;;5044753;28;20454;-70
2022/08/07 11:07:42;;;;;;;1999.90;999.90;;;24.50;75.30;;;;;;5052068;28;20473;-70
2022/08/07 11:10:17;;;;;;;1999.90;999.90;;;25.20;74.40;;;;;;5045607;28;20485;-71
2022/08/07 11:12:51;;;;;;;1999.90;999.90;;;24.80;75.40;;;;;;5046446;28;20481;-70
2022/08/07 11:15:22;;;;;;;1999.90;999.90;;;24.30;74.10;;;;;;5051263;28;20516;-70
2022/08/07 11:17:58;;;;;;;1999.90;999.90;;;24.00;74.50;;;;;;5067310;23;20564;-71
2022/08/07 11:20:36;;;;;;;1999.90;999.90;;;23.90;75.80;;;;;;5040402;28;20463;-71
2022/08/07 11:23:11;;;;;;;1999.90;999.90;;;24.20;77.30;;;;;;5037721;28;20497;-71
2022/08/07 11:25:45;;;;;;;1999.90;999.90;;;24.60;72.80;;;;;;5034064;28;20467;-71
2022/08/07 11:28:16;;;;;;;1999.90;999.90;;;25.10;73.90;;;;;;5031514;28;20906;-71
2022/08/07 11:30:51;;;;;;;1999.90;999.90;;;25.20;72.00;;;;;;5027103;28;20518;-70
2022/08/07 11:33:26;;;;;;;1999.90;999.90;;;25.30;71.20;;;;;;5033168;28;20467;-71
2022/08/07 11:36:06;;;;;;;1999.90;999.90;;;25.30;71.50;;;;;;5030151;28;20545;-71
2022/08/07 11:38:40;;;;;;;1999.90;999.90;;;25.70;69.60;;;;;;5025565;28;21004;-72
2022/08/07 11:41:14;;;;;;;1999.90;999.90;;;25.50;69.80;;;;;;5030490;28;20459;-71
2022/08/07 11:43:48;;;;;;;1999.90;999.90;;;25.70;70.00;;;;;;5027225;28;20462;-71
2022/08/07 11:46:40;;;;;;;1999.90;999.90;;;26.00;67.80;;;;;;5027872;28;20462;-71
2022/08/07 11:49:39;;;;;;;1999.90;999.90;;;25.80;69.50;;;;;;5032937;28;20517;-71
2022/08/07 11:52:21;;;;;;;1999.90;999.90;;;25.90;68.90;;;;;;5024425;28;20483;-71
2022/08/07 11:55:00;;;;;;;1999.90;999.90;;;25.70;68.00;;;;;;5028071;28;20471;-71
2022/08/07 11:57:32;;;;;;;1999.90;999.90;;;25.70;66.00;;;;;;5031740;28;20486;-69
2022/08/07 12:00:10;;;;;;;1999.90;999.90;;;25.30;66.00;;;;;;5027867;28;20467;-71
2022/08/07 12:02:57;;;;;;;1999.90;999.90;;;24.80;68.00;;;;;;5025928;28;20491;-71
2022/08/07 12:05:35;;;;;;;1999.90;999.90;;;24.30;69.10;;;;;;5030149;28;20467;-71
2022/08/07 12:08:07;;;;;;;1999.90;999.90;;;24.20;70.50;;;;;;5025976;28;24089;-71
2022/08/07 12:10:39;;;;;;;1999.90;999.90;;;24.00;68.90;;;;;;5026348;28;20519;-71
2022/08/07 12:13:12;;;;;;;1999.90;999.90;;;23.90;70.60;;;;;;5032184;28;20517;-71
2022/08/07 12:15:44;;;;;;;1999.90;999.90;;;24.20;70.70;;;;;;5025555;28;20454;-71
2022/08/07 12:18:18;;;;;;;1999.90;999.90;;;24.80;70.00;;;;;;5028624;28;20486;-71
2022/08/07 12:20:51;;;;;;;1999.90;999.90;;;25.10;68.20;;;;;;5027018;28;20889;-71
2022/08/07 12:23:42;;;;;;;1999.90;999.90;;;25.30;69.20;;;;;;5029904;28;20458;-71
2022/08/07 12:26:14;;;;;;;1999.90;999.90;;;25.60;67.60;;;;;;5033691;28;20463;-69